ADDS METAR Data INFO
IDs: Format: Raw Decoded Include TAF

Data at: 0033 UTC 23 Feb 2018

KDGW 222353Z AUTO 00000KT 10SM CLR M08/M13 A2997 RMK AO2 SLP229 T10781133 11061 21094 53003
KDGW 222253Z AUTO 30006KT 10SM CLR M07/M12 A2996 RMK AO2 SLP226 T10721122
KDGW 222153Z AUTO 29007KT 10SM CLR M07/M12 A2996 RMK AO2 SLP229 T10671122
KDGW 222053Z AUTO 30011KT 10SM CLR M07/M12 A2996 RMK AO2 SLP230 T10671122 56019
KDGW 221953Z AUTO 30008KT 10SM CLR M06/M12 A2997 RMK AO2 SLP231 T10611122
KDGW 221853Z AUTO 30010KT 10SM BKN070 OVC090 M08/M13 A2999 RMK AO2 SLP233 T10781128
KDGW 221753Z AUTO 32005KT 10SM BKN070 OVC085 M09/M14 A3002 RMK AO2 SLP246 T10891139 11089 21183 58005
KDGW 221653Z AUTO 33003KT 10SM BKN060 OVC100 M11/M16 A3003 RMK AO2 SLP249 T11111156
KDGW 221553Z AUTO 32003KT 10SM OVC080 M13/M16 A3004 RMK AO2 SLP255 T11281161
KDGW 221453Z AUTO 33006KT 10SM OVC095 M16/M18 A3004 RMK AO2 SLP262 T11561178 53002
KDGW 221353Z AUTO 36006KT 10SM BKN070 M18/M20 A3004 RMK AO2 SLP272 T11781200
KDGW 221253Z AUTO 31005KT 10SM OVC070 M17/M19 A3003 RMK AO2 SLP265 T11721189
KDGW 221153Z AUTO 31004KT 10SM OVC095 M18/M21 A3003 RMK AO2 SLP261 I6000 T11831206 11144 21217 56009
KDGW 221053Z AUTO 31003KT 10SM OVC110 M19/M21 A3004 RMK AO2 SLP256 T11891211
KDGW 220953Z AUTO 33003KT 10SM CLR M21/M23 A3005 RMK AO2 SLP268 T12061228
KDGW 220853Z AUTO 29005KT 10SM CLR M21/M23 A3006 RMK AO2 SLP277 I1000 I3000 T12111233 56009
KDGW 220753Z AUTO 30003KT 10SM SCT065 M20/M22 A3007 RMK AO2 SLP285 I1000 T12001217
KDGW 220653Z AUTO 34003KT 10SM CLR M16/M18 A3009 RMK AO2 SLP288 T11611178 410781339
KDGW 220553Z AUTO 00000KT 10SM FEW120 M16/M18 A3009 RMK AO2 SLP296 T11561183 11122 21172 56005
KDGW 220453Z AUTO 16003KT 10SM CLR M14/M17 A3010 RMK AO2 SLP302 T11391172
KDGW 220353Z AUTO 10SM SCT095 BKN120 M14/M18 A3011 RMK AO2 SLP314 T11441178
KDGW 212353Z AUTO 00000KT 10SM FEW120 M12/M15 A3012 RMK AO2 SLP325 T11221150 11078 21200 51001
KDGW 212253Z AUTO 00000KT 10SM CLR M08/M14 A3012 RMK AO2 SLP315 T10831139
KDGW 212153Z AUTO 00000KT 10SM CLR M09/M15 A3012 RMK AO2 SLP318 T10941150
KDGW 212053Z AUTO 00000KT 10SM CLR M12/M15 A3012 RMK AO2 SLP317 T11171150 58013
KDGW 211953Z AUTO 00000KT 10SM CLR M15/M18 A3013 RMK AO2 SLP332 T11501183
KDGW 211853Z AUTO 00000KT 10SM CLR M17/M20 A3015 RMK AO2 SLP340 T11721200
KDGW 211753Z AUTO 00000KT 10SM CLR M20/M22 A3016 RMK AO2 SLP349 T12001222 11200 21339 56004
KDGW 211653Z AUTO 32003KT 7SM CLR M24/M27 A3016 RMK AO2 SLP358 T12391267
KDGW 211553Z AUTO 31005KT 8SM CLR M27/M31 A3017 RMK AO2 SLP363 T12721311
KDGW 211453Z AUTO 00000KT 10SM FEW001 M29/M33 A3017 RMK AO2 SLP368 T12941333 53006
KDGW 211446Z AUTO 00000KT 10SM FEW001 M31/M34 A3018 RMK AO2 T13061344
KDGW 211353Z AUTO 00000KT 10SM CLR M33/M36 A3017 RMK AO2 SLP373 T13331361
KDGW 211253Z AUTO 30004KT 8SM CLR M32/M35 A3015 RMK AO2 SLP360 T13221350